createdAt,value
2018-10-06T00:00:56.633Z,98.1
2018-10-06T00:01:57.331Z,98.8
2018-10-06T00:02:57.999Z,98.5
2018-10-06T00:03:58.667Z,98.6
2018-10-06T00:04:59.333Z,99.0
2018-10-06T00:06:00.000Z,98.8
2018-10-06T00:07:00.668Z,98.7
2018-10-06T00:08:01.337Z,98.9
2018-10-06T00:09:02.008Z,98.9
2018-10-06T00:10:02.673Z,98.8
2018-10-06T00:11:03.340Z,98.5
2018-10-06T00:12:04.005Z,98.8
2018-10-06T00:13:04.674Z,99.2
2018-10-06T00:14:05.342Z,98.9
2018-10-06T00:15:06.006Z,99.2
2018-10-06T00:16:06.674Z,98.9
2018-10-06T00:17:07.340Z,99.3
2018-10-06T00:18:08.008Z,99.1
2018-10-06T00:19:08.672Z,99.1
2018-10-06T00:20:09.339Z,99.4
2018-10-06T00:21:10.008Z,99.1
2018-10-06T00:22:10.674Z,99.1
2018-10-06T00:23:11.342Z,99.1
2018-10-06T00:24:12.007Z,99.6
2018-10-06T00:25:12.674Z,99.7
2018-10-06T00:26:13.340Z,99.5
2018-10-06T00:27:14.008Z,99.5
2018-10-06T00:28:14.675Z,99.6
2018-10-06T00:29:15.343Z,99.6
2018-10-06T00:30:16.008Z,99.7
2018-10-06T00:31:16.673Z,99.6
2018-10-06T00:32:17.342Z,99.6
2018-10-06T00:33:18.008Z,99.6
2018-10-06T00:34:18.674Z,99.8
2018-10-06T00:35:19.341Z,99.6
2018-10-06T00:36:20.009Z,99.6
2018-10-06T00:37:20.675Z,99.5
2018-10-06T00:38:21.342Z,100.0
2018-10-06T00:39:22.009Z,99.7
2018-10-06T00:40:22.675Z,99.7
2018-10-06T00:41:23.340Z,99.9
2018-10-06T00:42:24.008Z,99.7
2018-10-06T00:43:24.678Z,100.0
2018-10-06T00:44:25.342Z,99.8
2018-10-06T00:45:26.015Z,100.0
2018-10-06T00:46:26.720Z,99.8
2018-10-06T00:47:27.387Z,100.0
2018-10-06T00:48:28.053Z,99.8
2018-10-06T00:49:28.749Z,99.6
2018-10-06T00:50:29.432Z,99.7
2018-10-06T00:51:30.099Z,100.0
2018-10-06T00:52:30.766Z,100.0
2018-10-06T00:53:31.434Z,100.0
2018-10-06T00:54:32.100Z,100.0
2018-10-06T00:55:32.772Z,100.0
2018-10-06T00:56:33.479Z,100.0
2018-10-06T00:57:34.149Z,100.0
2018-10-06T00:58:34.813Z,100.0
2018-10-06T00:59:35.480Z,100.0
2018-10-06T01:00:36.147Z,100.0
2018-10-06T01:01:36.815Z,100.0
2018-10-06T01:02:37.483Z,100.0
2018-10-06T01:03:38.150Z,100.0
2018-10-06T01:04:38.818Z,100.0
2018-10-06T01:05:39.486Z,100.0
2018-10-06T01:06:40.153Z,100.0
2018-10-06T01:07:40.847Z,100.0
2018-10-06T01:08:41.535Z,100.0
2018-10-06T01:09:42.202Z,100.0
2018-10-06T01:10:42.870Z,100.0
2018-10-06T01:11:43.541Z,100.0
2018-10-06T01:12:44.204Z,100.0
2018-10-06T01:13:44.873Z,100.0
2018-10-06T01:14:45.542Z,100.0
2018-10-06T01:15:46.208Z,100.0
2018-10-06T01:16:46.879Z,100.0
2018-10-06T01:17:47.544Z,100.0
2018-10-06T01:18:48.211Z,100.0
2018-10-06T01:19:48.879Z,100.0
2018-10-06T01:20:49.548Z,100.0
2018-10-06T01:21:50.221Z,100.0
2018-10-06T01:22:50.884Z,100.0
2018-10-06T01:23:51.551Z,99.9
2018-10-06T01:24:52.216Z,99.7
2018-10-06T01:25:52.883Z,99.7
2018-10-06T01:26:53.551Z,99.6
2018-10-06T01:27:54.218Z,99.7
2018-10-06T01:28:54.926Z,100.0
2018-10-06T01:29:55.552Z,99.7
2018-10-06T01:30:56.263Z,99.0
2018-10-06T01:31:56.930Z,98.8
2018-10-06T01:32:57.596Z,99.1
2018-10-06T01:33:58.265Z,98.7
2018-10-06T01:34:58.931Z,98.8
2018-10-06T01:35:59.599Z,98.6
2018-10-06T01:37:00.268Z,98.3
2018-10-06T01:38:00.939Z,98.4
2018-10-06T01:39:01.602Z,98.4
2018-10-06T01:40:02.274Z,97.2
2018-10-06T01:41:02.939Z,97.7
2018-10-06T01:42:03.608Z,97.0
2018-10-06T01:43:04.276Z,97.0
2018-10-06T01:44:04.942Z,96.9
2018-10-06T01:45:05.612Z,96.9
2018-10-06T01:46:06.281Z,97.4
2018-10-06T01:47:06.949Z,97.6
2018-10-06T01:48:07.616Z,97.3
2018-10-06T01:49:08.284Z,97.4
2018-10-06T01:50:08.952Z,97.2
2018-10-06T01:51:09.695Z,96.9
2018-10-06T01:52:10.290Z,96.9
2018-10-06T01:53:10.956Z,96.8
2018-10-06T01:54:11.625Z,96.9
2018-10-06T01:55:12.295Z,97.7
2018-10-06T01:56:12.961Z,96.5
2018-10-06T01:57:13.671Z,96.9
2018-10-06T01:58:14.342Z,96.8
2018-10-06T01:59:15.050Z,96.8
2018-10-06T02:00:15.718Z,97.1
2018-10-06T02:01:16.385Z,97.1
2018-10-06T02:02:17.052Z,96.6
2018-10-06T02:03:17.720Z,96.4
2018-10-06T02:04:18.389Z,96.6
2018-10-06T02:05:19.057Z,96.6
2018-10-06T02:06:19.727Z,96.6
2018-10-06T02:07:20.392Z,96.7
2018-10-06T02:08:21.058Z,96.5
2018-10-06T02:09:21.726Z,96.4
2018-10-06T02:10:22.399Z,96.9
2018-10-06T02:11:23.063Z,96.7
2018-10-06T02:12:23.730Z,96.7
2018-10-06T02:13:24.397Z,97.1
2018-10-06T02:14:25.064Z,96.5
2018-10-06T02:15:25.731Z,96.7
2018-10-06T02:16:26.402Z,96.6
2018-10-06T02:17:27.068Z,96.6
2018-10-06T02:18:27.734Z,96.4
2018-10-06T02:19:28.445Z,96.3
2018-10-06T02:20:29.115Z,96.5
2018-10-06T02:21:29.776Z,96.7
2018-10-06T02:22:30.443Z,97.3
2018-10-06T02:23:31.110Z,97.5
2018-10-06T02:24:31.782Z,97.2
2018-10-06T02:25:32.487Z,97.0
2018-10-06T02:26:33.154Z,97.3
2018-10-06T02:27:33.820Z,97.0
2018-10-06T02:28:34.486Z,97.2
2018-10-06T02:29:35.152Z,97.0
2018-10-06T02:30:35.820Z,97.1
2018-10-06T02:31:36.487Z,97.1
2018-10-06T02:32:37.154Z,97.4
2018-10-06T02:33:37.822Z,97.3
2018-10-06T02:34:38.531Z,97.3
2018-10-06T02:35:39.196Z,97.1
2018-10-06T02:36:39.881Z,97.7
2018-10-06T02:37:40.531Z,97.8
2018-10-06T02:38:41.197Z,97.7
2018-10-06T02:39:41.861Z,97.7
2018-10-06T02:40:42.528Z,97.9
2018-10-06T02:41:43.194Z,97.9
2018-10-06T02:42:43.860Z,98.1
2018-10-06T02:43:44.527Z,98.0
2018-10-06T02:44:45.193Z,98.1
2018-10-06T02:45:45.860Z,98.3
2018-10-06T02:46:46.528Z,98.5
2018-10-06T02:47:47.193Z,98.4
2018-10-06T02:48:47.861Z,98.4
2018-10-06T02:49:48.527Z,98.8
2018-10-06T02:50:49.192Z,98.7
2018-10-06T02:51:49.901Z,98.8
2018-10-06T02:52:50.569Z,99.3
2018-10-06T02:53:51.237Z,98.7
2018-10-06T02:54:51.905Z,98.9
2018-10-06T02:55:52.571Z,99.4
2018-10-06T02:56:53.242Z,99.2
2018-10-06T02:57:53.903Z,99.9
2018-10-06T02:58:54.570Z,99.6
2018-10-06T02:59:55.239Z,99.8
2018-10-06T03:00:55.906Z,99.9
2018-10-06T03:01:56.572Z,99.6
2018-10-06T03:02:57.240Z,99.7
2018-10-06T03:03:57.907Z,99.6
2018-10-06T03:04:58.572Z,99.6
2018-10-06T03:05:59.239Z,100.0
2018-10-06T03:06:59.912Z,99.8
2018-10-06T03:08:00.621Z,100.0
2018-10-06T03:09:01.290Z,100.0
2018-10-06T03:10:01.956Z,99.7
2018-10-06T03:11:02.624Z,99.6
2018-10-06T03:12:03.291Z,99.6
2018-10-06T03:13:04.004Z,99.6
2018-10-06T03:14:04.672Z,99.4
2018-10-06T03:15:05.340Z,99.1
2018-10-06T03:16:06.011Z,99.0
2018-10-06T03:17:06.717Z,98.8
2018-10-06T03:18:07.390Z,99.1
2018-10-06T03:19:08.054Z,98.5
2018-10-06T03:20:08.721Z,98.1
2018-10-06T03:21:09.390Z,98.0
2018-10-06T03:22:10.058Z,98.0
2018-10-06T03:23:10.726Z,97.5
2018-10-06T03:24:11.394Z,97.7
2018-10-06T03:25:12.070Z,97.9
2018-10-06T03:26:12.771Z,97.7
2018-10-06T03:27:13.438Z,97.6
2018-10-06T03:28:14.107Z,97.8
2018-10-06T03:29:14.777Z,97.3
2018-10-06T03:30:15.440Z,97.4
2018-10-06T03:31:16.109Z,97.3
2018-10-06T03:32:16.778Z,97.5
2018-10-06T03:33:17.445Z,97.2
2018-10-06T03:34:18.113Z,97.2
2018-10-06T03:35:18.784Z,97.5
2018-10-06T03:36:19.449Z,96.8
2018-10-06T03:37:20.117Z,97.0
2018-10-06T03:38:20.831Z,96.9
2018-10-06T03:39:21.498Z,97.0
2018-10-06T03:40:22.170Z,96.9
2018-10-06T03:41:22.835Z,97.0
2018-10-06T03:42:23.507Z,97.2
2018-10-06T03:43:24.179Z,96.9
2018-10-06T03:44:24.841Z,96.7
2018-10-06T03:45:25.509Z,96.5
2018-10-06T03:46:26.178Z,96.7
2018-10-06T03:47:26.844Z,96.7
2018-10-06T03:48:27.511Z,96.7
2018-10-06T03:49:28.179Z,96.4
2018-10-06T03:50:28.851Z,96.3
2018-10-06T03:51:29.559Z,96.4
2018-10-06T03:52:30.229Z,96.5
2018-10-06T03:53:30.896Z,96.2
2018-10-06T03:54:31.563Z,96.4
2018-10-06T03:55:32.231Z,96.2
2018-10-06T03:56:32.902Z,96.7
2018-10-06T03:57:33.569Z,96.5
2018-10-06T03:58:34.236Z,96.8
2018-10-06T03:59:34.908Z,97.0
2018-10-06T04:00:35.572Z,96.9
2018-10-06T04:01:36.239Z,97.1
2018-10-06T04:02:36.926Z,96.9
2018-10-06T04:03:37.579Z,97.0
2018-10-06T04:04:38.245Z,97.0
2018-10-06T04:05:38.913Z,97.0
2018-10-06T04:06:39.582Z,96.9
2018-10-06T04:07:40.292Z,96.9
2018-10-06T04:08:40.962Z,96.6
2018-10-06T04:09:41.630Z,96.7
2018-10-06T04:10:42.297Z,96.7
2018-10-06T04:11:42.965Z,96.7
2018-10-06T04:12:43.634Z,96.9
2018-10-06T04:13:44.301Z,96.8
2018-10-06T04:14:44.970Z,96.7
2018-10-06T04:15:45.638Z,96.9
2018-10-06T04:16:46.306Z,97.5
2018-10-06T04:17:46.974Z,97.5
2018-10-06T04:18:47.641Z,97.7
2018-10-06T04:19:48.321Z,98.3
2018-10-06T04:20:49.023Z,98.3
2018-10-06T04:21:49.696Z,99.1
2018-10-06T04:22:50.362Z,98.7
2018-10-06T04:23:51.030Z,98.0
2018-10-06T04:24:51.698Z,98.5
2018-10-06T04:25:52.367Z,98.6
2018-10-06T04:26:53.035Z,98.3
2018-10-06T04:27:53.704Z,97.5
2018-10-06T04:28:54.371Z,97.7
2018-10-06T04:29:55.039Z,97.8
2018-10-06T04:30:55.707Z,97.3
2018-10-06T04:31:56.375Z,97.2
2018-10-06T04:32:57.044Z,97.5
2018-10-06T04:33:57.714Z,97.6
2018-10-06T04:34:58.384Z,97.0
2018-10-06T04:35:59.053Z,97.1
2018-10-06T04:36:59.722Z,96.6
2018-10-06T04:38:00.388Z,96.9
2018-10-06T04:39:01.102Z,96.8
2018-10-06T04:40:01.773Z,97.0
2018-10-06T04:41:02.439Z,96.9
2018-10-06T04:42:03.109Z,96.7
2018-10-06T04:43:03.776Z,96.8
2018-10-06T04:44:04.447Z,96.6
2018-10-06T04:45:05.116Z,96.6
2018-10-06T04:46:05.786Z,96.4
2018-10-06T04:47:06.452Z,96.6
2018-10-06T04:48:07.161Z,96.5
2018-10-06T04:49:07.830Z,96.2
2018-10-06T04:50:08.498Z,95.9
2018-10-06T04:51:09.171Z,96.1
2018-10-06T04:52:09.838Z,96.2
2018-10-06T04:53:10.640Z,95.8
2018-10-06T04:54:11.177Z,95.6
2018-10-06T04:55:11.841Z,95.7
2018-10-06T04:56:12.531Z,95.9
2018-10-06T04:57:13.181Z,95.6
2018-10-06T04:58:13.891Z,95.9
2018-10-06T04:59:14.560Z,95.9
2018-10-06T05:00:15.232Z,95.6
2018-10-06T05:01:15.939Z,95.9
2018-10-06T05:02:16.608Z,96.0
2018-10-06T05:03:17.325Z,95.9
2018-10-06T05:04:17.945Z,95.7
2018-10-06T05:05:18.614Z,95.7
2018-10-06T05:06:19.284Z,95.7
2018-10-06T05:07:19.953Z,95.7
2018-10-06T05:08:20.628Z,96.2
2018-10-06T05:09:21.294Z,96.4
2018-10-06T05:10:21.964Z,96.0
2018-10-06T05:11:22.638Z,96.6
2018-10-06T05:12:23.302Z,96.4
2018-10-06T05:13:23.972Z,96.5
2018-10-06T05:14:24.644Z,96.5
2018-10-06T05:15:25.312Z,96.7
2018-10-06T05:16:25.981Z,96.6
2018-10-06T05:17:26.650Z,97.2
2018-10-06T05:18:27.319Z,96.9
2018-10-06T05:19:27.993Z,97.5
2018-10-06T05:20:28.663Z,97.0
2018-10-06T05:21:29.329Z,97.4
2018-10-06T05:22:29.998Z,97.6
2018-10-06T05:23:30.687Z,97.6
2018-10-06T05:24:31.340Z,97.1
2018-10-06T05:25:32.011Z,98.0
2018-10-06T05:26:32.682Z,97.6
2018-10-06T05:27:33.352Z,98.1
2018-10-06T05:28:34.024Z,98.0
2018-10-06T05:29:34.751Z,98.3
2018-10-06T05:30:35.365Z,98.8
2018-10-06T05:31:36.034Z,98.7
2018-10-06T05:32:36.721Z,98.6
2018-10-06T05:33:37.420Z,98.9
2018-10-06T05:34:38.091Z,98.7
2018-10-06T05:35:38.800Z,98.5
2018-10-06T05:36:39.469Z,98.7
2018-10-06T05:37:40.140Z,98.7
2018-10-06T05:38:40.812Z,98.8
2018-10-06T05:39:41.483Z,99.3
2018-10-06T05:40:42.194Z,99.7
2018-10-06T05:41:42.865Z,99.7
2018-10-06T05:42:43.535Z,99.7
2018-10-06T05:43:44.251Z,99.9
2018-10-06T05:44:44.923Z,99.8
2018-10-06T05:45:45.592Z,99.9
2018-10-06T05:46:46.265Z,100.0
2018-10-06T05:47:46.937Z,99.7
2018-10-06T05:48:47.609Z,99.9
2018-10-06T05:49:48.281Z,100.0
2018-10-06T05:50:48.955Z,100.0
2018-10-06T05:51:49.627Z,100.0
2018-10-06T05:52:50.299Z,100.0
2018-10-06T05:53:50.971Z,100.0
2018-10-06T05:54:51.646Z,100.0
2018-10-06T05:55:52.318Z,100.0
2018-10-06T05:56:52.991Z,100.0
2018-10-06T05:57:53.663Z,100.0
2018-10-06T05:58:54.383Z,100.0
2018-10-06T05:59:55.008Z,100.0
2018-10-06T06:00:55.721Z,99.8
2018-10-06T06:01:56.392Z,99.8
2018-10-06T06:02:57.068Z,99.8
2018-10-06T06:03:57.780Z,98.7
2018-10-06T06:04:58.452Z,98.9
2018-10-06T06:05:59.126Z,98.9
2018-10-06T06:06:59.798Z,98.9
2018-10-06T06:08:00.471Z,99.0
2018-10-06T06:09:01.143Z,98.7
2018-10-06T06:10:01.887Z,98.6
2018-10-06T06:11:02.538Z,97.9
2018-10-06T06:12:03.212Z,98.0
2018-10-06T06:13:03.891Z,98.2
2018-10-06T06:14:04.559Z,98.0
2018-10-06T06:15:05.274Z,97.9
2018-10-06T06:16:05.945Z,97.3
2018-10-06T06:17:06.620Z,97.1
2018-10-06T06:18:07.292Z,97.4
2018-10-06T06:19:07.964Z,97.7
2018-10-06T06:20:08.635Z,97.0
2018-10-06T06:21:09.313Z,97.3
2018-10-06T06:22:10.024Z,97.2
2018-10-06T06:23:10.695Z,96.7
2018-10-06T06:24:11.368Z,97.1
2018-10-06T06:25:12.042Z,96.9
2018-10-06T06:26:12.717Z,97.0
2018-10-06T06:27:13.430Z,96.9
2018-10-06T06:28:14.103Z,96.7
2018-10-06T06:29:14.774Z,96.3
2018-10-06T06:30:15.450Z,96.1
2018-10-06T06:31:16.152Z,95.8
2018-10-06T06:32:16.862Z,95.8
2018-10-06T06:33:17.464Z,95.9
2018-10-06T06:34:18.138Z,95.4
2018-10-06T06:35:18.810Z,95.6
2018-10-06T06:36:19.483Z,94.9
2018-10-06T06:37:20.159Z,94.9
2018-10-06T06:38:20.838Z,94.9
2018-10-06T06:39:21.500Z,95.1
2018-10-06T06:40:22.206Z,95.1
2018-10-06T06:41:22.851Z,94.7
2018-10-06T06:42:23.517Z,94.6
2018-10-06T06:43:24.193Z,94.6
2018-10-06T06:44:25.036Z,94.0
2018-10-06T06:45:25.537Z,93.9
2018-10-06T06:46:26.209Z,94.4
2018-10-06T06:47:26.883Z,93.8
2018-10-06T06:48:27.555Z,94.0
2018-10-06T06:49:28.228Z,94.5
2018-10-06T06:50:28.900Z,93.7
2018-10-06T06:51:29.573Z,93.8
2018-10-06T06:52:30.246Z,94.1
2018-10-06T06:53:30.917Z,93.6
2018-10-06T06:54:31.593Z,93.8
2018-10-06T06:55:32.266Z,93.9
2018-10-06T06:56:32.938Z,94.0
2018-10-06T06:57:33.611Z,93.8
2018-10-06T06:58:34.287Z,93.7
2018-10-06T06:59:34.957Z,93.2
2018-10-06T07:00:35.631Z,93.1
2018-10-06T07:01:36.305Z,93.2
2018-10-06T07:02:37.023Z,93.6
2018-10-06T07:03:37.698Z,93.2
2018-10-06T07:04:38.412Z,92.7
2018-10-06T07:05:39.124Z,92.6
2018-10-06T07:06:39.756Z,92.8
2018-10-06T07:07:40.430Z,92.3
2018-10-06T07:08:41.103Z,92.5
2018-10-06T07:09:41.778Z,92.4
2018-10-06T07:10:42.493Z,92.4
2018-10-06T07:11:43.166Z,92.4
2018-10-06T07:12:43.921Z,92.3
2018-10-06T07:13:44.554Z,91.8
2018-10-06T07:14:45.227Z,91.8
2018-10-06T07:15:45.899Z,92.0
2018-10-06T07:16:46.573Z,92.1
2018-10-06T07:17:47.246Z,91.8
2018-10-06T07:18:47.920Z,91.6
2018-10-06T07:19:48.593Z,91.6
2018-10-06T07:20:49.269Z,91.5
2018-10-06T07:21:49.940Z,91.6
2018-10-06T07:22:50.614Z,91.3
2018-10-06T07:23:51.287Z,91.7
2018-10-06T07:24:51.961Z,91.3
2018-10-06T07:25:52.635Z,91.3
2018-10-06T07:26:53.307Z,91.3
2018-10-06T07:27:53.980Z,91.4
2018-10-06T07:28:54.657Z,91.6
2018-10-06T07:29:55.329Z,91.1
2018-10-06T07:30:56.001Z,91.5
2018-10-06T07:31:56.678Z,91.3
2018-10-06T07:32:57.350Z,91.5
2018-10-06T07:33:58.026Z,91.1
2018-10-06T07:34:58.699Z,90.9
2018-10-06T07:35:59.378Z,90.9
2018-10-06T07:37:00.049Z,90.8
2018-10-06T07:38:00.723Z,90.9
2018-10-06T07:39:01.397Z,90.9
2018-10-06T07:40:02.073Z,91.3
2018-10-06T07:41:02.745Z,91.4
2018-10-06T07:42:03.419Z,90.5
2018-10-06T07:43:04.115Z,90.5
2018-10-06T07:44:04.818Z,90.8
2018-10-06T07:45:05.493Z,90.8
2018-10-06T07:46:06.167Z,90.5
2018-10-06T07:47:06.842Z,90.3
2018-10-06T07:48:07.515Z,90.1
2018-10-06T07:49:08.242Z,90.5
2018-10-06T07:50:08.863Z,89.8
2018-10-06T07:51:09.540Z,89.9
2018-10-06T07:52:10.211Z,89.8
2018-10-06T07:53:10.979Z,89.6
2018-10-06T07:54:11.560Z,89.9
2018-10-06T07:55:12.234Z,89.8
2018-10-06T07:56:12.908Z,90.2
2018-10-06T07:57:13.627Z,89.1
2018-10-06T07:58:14.311Z,89.4
2018-10-06T07:59:15.023Z,89.7
2018-10-06T08:00:15.654Z,89.4
2018-10-06T08:01:16.330Z,89.1
2018-10-06T08:02:17.003Z,88.6
2018-10-06T08:03:17.679Z,88.8
2018-10-06T08:04:18.354Z,88.5
2018-10-06T08:05:19.031Z,87.8
2018-10-06T08:06:19.709Z,86.8
2018-10-06T08:07:20.384Z,87.0
2018-10-06T08:08:21.059Z,86.4
2018-10-06T08:09:21.734Z,86.5
2018-10-06T08:10:22.410Z,85.7
2018-10-06T08:11:23.084Z,85.5
2018-10-06T08:12:23.762Z,84.7
2018-10-06T08:13:24.438Z,84.1
2018-10-06T08:14:25.114Z,83.5
2018-10-06T08:15:25.790Z,83.3
2018-10-06T08:16:26.466Z,82.8
2018-10-06T08:17:27.144Z,82.2
2018-10-06T08:18:27.819Z,81.6
2018-10-06T08:19:28.538Z,81.7
2018-10-06T08:20:29.214Z,81.2
2018-10-06T08:21:29.889Z,80.8
2018-10-06T08:22:30.566Z,80.4
2018-10-06T08:23:31.242Z,80.6
2018-10-06T08:24:31.917Z,79.5
2018-10-06T08:25:32.602Z,78.9
2018-10-06T08:26:33.270Z,79.5
2018-10-06T08:27:33.947Z,78.7
2018-10-06T08:28:34.623Z,78.4
2018-10-06T08:29:35.342Z,77.9
2018-10-06T08:30:36.019Z,77.9
2018-10-06T08:31:36.697Z,77.4
2018-10-06T08:32:37.375Z,77.0
2018-10-06T08:33:38.052Z,76.8
2018-10-06T08:34:38.771Z,76.6
2018-10-06T08:35:39.447Z,76.4
2018-10-06T08:36:40.126Z,75.9
2018-10-06T08:37:40.801Z,75.4
2018-10-06T08:38:41.483Z,75.3
2018-10-06T08:39:42.161Z,75.3
2018-10-06T08:40:42.878Z,75.2
2018-10-06T08:41:43.571Z,75.1
2018-10-06T08:42:44.289Z,75.1
2018-10-06T08:43:44.955Z,74.9
2018-10-06T08:44:45.632Z,74.6
2018-10-06T08:45:46.310Z,74.2
2018-10-06T08:46:46.987Z,73.8
2018-10-06T08:47:47.667Z,73.7
2018-10-06T08:48:48.386Z,73.3
2018-10-06T08:49:49.129Z,72.8
2018-10-06T08:50:49.742Z,72.3
2018-10-06T08:51:50.423Z,72.1
2018-10-06T08:52:51.143Z,71.8
2018-10-06T08:53:51.822Z,71.4
2018-10-06T08:54:52.502Z,71.2
2018-10-06T08:55:53.244Z,70.4
2018-10-06T08:56:53.901Z,70.1
2018-10-06T08:57:54.578Z,69.4
2018-10-06T08:58:55.258Z,68.6
2018-10-06T08:59:55.936Z,68.1
2018-10-06T09:00:56.615Z,67.5
2018-10-06T09:01:57.294Z,66.4
2018-10-06T09:02:57.973Z,65.8
2018-10-06T09:03:58.652Z,64.8
2018-10-06T09:04:59.329Z,64.6
2018-10-06T09:06:00.011Z,64.1
2018-10-06T09:07:00.689Z,63.3
2018-10-06T09:08:01.367Z,62.3
2018-10-06T09:09:02.045Z,61.6
2018-10-06T09:10:02.724Z,61.0
2018-10-06T09:11:03.459Z,60.7
2018-10-06T09:12:04.082Z,60.2
2018-10-06T09:13:04.762Z,60.3
2018-10-06T09:14:05.444Z,59.4
2018-10-06T09:15:06.123Z,59.4
2018-10-06T09:16:06.805Z,59.4
2018-10-06T09:17:07.525Z,59.4
2018-10-06T09:18:08.205Z,59.4
2018-10-06T09:19:08.886Z,58.9
2018-10-06T09:20:09.566Z,58.1
2018-10-06T09:21:10.251Z,57.5
2018-10-06T09:22:10.971Z,57.3
2018-10-06T09:23:11.658Z,57.3
2018-10-06T09:24:12.337Z,57.1
2018-10-06T09:25:13.015Z,56.5
2018-10-06T09:26:13.698Z,56.2
2018-10-06T09:27:14.378Z,56.2
2018-10-06T09:28:15.084Z,55.8
2018-10-06T09:29:15.741Z,55.3
2018-10-06T09:30:16.462Z,55.5
2018-10-06T09:31:17.141Z,55.5
2018-10-06T09:32:17.821Z,55.4
2018-10-06T09:33:18.503Z,55.3
2018-10-06T09:34:19.185Z,55.5
2018-10-06T09:35:19.913Z,55.3
2018-10-06T09:36:20.592Z,55.4
2018-10-06T09:37:21.307Z,54.9
2018-10-06T09:38:21.996Z,55.3
2018-10-06T09:39:22.676Z,55.8
2018-10-06T09:40:23.357Z,55.6
2018-10-06T09:41:24.038Z,55.9
2018-10-06T09:42:24.739Z,55.6
2018-10-06T09:43:25.444Z,55.3
2018-10-06T09:44:26.124Z,55.5
2018-10-06T09:45:26.812Z,56.0
2018-10-06T09:46:27.488Z,55.7
2018-10-06T09:47:28.171Z,56.4
2018-10-06T09:48:28.856Z,55.9
2018-10-06T09:49:29.601Z,55.5
2018-10-06T09:50:30.300Z,55.4
2018-10-06T09:51:30.980Z,55.4
2018-10-06T09:52:31.660Z,54.9
2018-10-06T09:53:32.350Z,55.2
2018-10-06T09:54:33.025Z,55.4
2018-10-06T09:55:33.705Z,55.5
2018-10-06T09:56:34.386Z,55.2
2018-10-06T09:57:35.072Z,54.7
2018-10-06T09:58:35.753Z,55.2
2018-10-06T09:59:36.439Z,54.8
2018-10-06T10:00:37.111Z,55.4
2018-10-06T10:01:37.792Z,55.2
2018-10-06T10:02:38.473Z,55.5
2018-10-06T10:03:39.156Z,55.1
2018-10-06T10:04:39.836Z,55.8
2018-10-06T10:05:40.521Z,56.2
2018-10-06T10:06:41.197Z,56.2
2018-10-06T10:07:41.881Z,56.2
2018-10-06T10:08:42.564Z,56.2
2018-10-06T10:09:43.338Z,56.5
2018-10-06T10:10:43.967Z,56.6
2018-10-06T10:11:44.648Z,56.7
2018-10-06T10:12:45.429Z,56.6
2018-10-06T10:13:46.011Z,56.6
2018-10-06T10:14:46.692Z,56.8
2018-10-06T10:15:47.375Z,56.5
2018-10-06T10:16:48.054Z,56.5
2018-10-06T10:17:48.886Z,56.5
2018-10-06T10:18:49.469Z,57.0
2018-10-06T10:19:50.183Z,56.8
2018-10-06T10:20:50.875Z,56.5
2018-10-06T10:21:51.613Z,57.2
2018-10-06T10:22:52.288Z,56.9
2018-10-06T10:23:52.941Z,56.9
2018-10-06T10:24:53.600Z,56.9
2018-10-06T10:25:54.279Z,56.6
2018-10-06T10:26:54.963Z,56.7
2018-10-06T10:27:55.686Z,56.5
2018-10-06T10:28:56.444Z,56.5
2018-10-06T10:29:57.046Z,56.7
2018-10-06T10:30:57.727Z,56.4
2018-10-06T10:31:58.408Z,56.8
2018-10-06T10:32:59.089Z,56.6
2018-10-06T10:33:59.771Z,56.0
2018-10-06T10:35:00.453Z,56.3
2018-10-06T10:36:01.139Z,55.9
2018-10-06T10:37:01.866Z,56.1
2018-10-06T10:38:02.547Z,56.0
2018-10-06T10:39:03.273Z,56.2
2018-10-06T10:40:03.909Z,55.8
2018-10-06T10:41:04.589Z,56.6
2018-10-06T10:42:05.284Z,55.9
2018-10-06T10:43:05.996Z,55.9
2018-10-06T10:44:06.804Z,56.1
2018-10-06T10:45:07.427Z,55.8
2018-10-06T10:46:08.122Z,56.2
2018-10-06T10:47:08.804Z,55.8
2018-10-06T10:48:09.488Z,55.2
2018-10-06T10:49:10.164Z,55.6
2018-10-06T10:50:10.848Z,55.5
2018-10-06T10:51:11.528Z,55.7
2018-10-06T10:52:12.236Z,55.9
2018-10-06T10:53:12.931Z,55.4
2018-10-06T10:54:13.612Z,55.4
2018-10-06T10:55:14.294Z,55.0
2018-10-06T10:56:14.973Z,54.7
2018-10-06T10:57:15.656Z,54.5
2018-10-06T10:58:16.356Z,54.6
2018-10-06T10:59:17.060Z,54.4
2018-10-06T11:00:17.910Z,54.5
2018-10-06T11:01:18.430Z,54.6
2018-10-06T11:02:19.113Z,54.4
2018-10-06T11:03:19.829Z,54.8
2018-10-06T11:04:20.508Z,54.7
2018-10-06T11:05:21.189Z,54.7
2018-10-06T11:06:21.912Z,54.9
2018-10-06T11:07:22.593Z,54.7
2018-10-06T11:08:23.274Z,54.5
2018-10-06T11:09:23.954Z,54.7
2018-10-06T11:10:24.636Z,54.5
2018-10-06T11:11:25.342Z,54.3
2018-10-06T11:12:25.997Z,54.6
2018-10-06T11:13:26.677Z,54.6
2018-10-06T11:14:27.408Z,54.4
2018-10-06T11:15:28.090Z,54.4
2018-10-06T11:16:28.813Z,54.5
2018-10-06T11:17:29.493Z,54.7
2018-10-06T11:18:30.174Z,54.5
2018-10-06T11:19:30.861Z,53.9
2018-10-06T11:20:31.550Z,52.6
2018-10-06T11:21:32.260Z,51.9
2018-10-06T11:22:32.940Z,52.3
2018-10-06T11:23:33.624Z,52.6
2018-10-06T11:24:34.346Z,51.4
2018-10-06T11:25:35.028Z,51.0
2018-10-06T11:26:35.710Z,50.6
2018-10-06T11:27:36.390Z,51.0
2018-10-06T11:28:37.074Z,51.4
2018-10-06T11:29:37.753Z,50.6
2018-10-06T11:30:38.436Z,50.6
2018-10-06T11:31:39.116Z,50.0
2018-10-06T11:32:39.796Z,50.0
2018-10-06T11:33:40.480Z,50.1
2018-10-06T11:34:41.156Z,50.0
2018-10-06T11:35:41.838Z,49.7
2018-10-06T11:36:42.517Z,49.6
2018-10-06T11:37:43.310Z,49.4
2018-10-06T11:38:43.917Z,49.3
2018-10-06T11:39:44.599Z,49.6
2018-10-06T11:40:45.279Z,49.8
2018-10-06T11:41:45.962Z,49.1
2018-10-06T11:42:46.642Z,48.7
2018-10-06T11:43:47.324Z,49.3
2018-10-06T11:44:48.049Z,49.6
2018-10-06T11:45:48.751Z,49.6
2018-10-06T11:46:49.454Z,49.2
2018-10-06T11:47:50.135Z,49.5
2018-10-06T11:48:50.817Z,49.6
2018-10-06T11:49:51.593Z,49.6
2018-10-06T11:50:52.254Z,49.5
2018-10-06T11:51:52.944Z,48.8
2018-10-06T11:52:53.661Z,48.8
2018-10-06T11:53:54.346Z,48.5
2018-10-06T11:54:55.022Z,47.7
2018-10-06T11:55:55.705Z,48.0
2018-10-06T11:56:56.419Z,47.9
2018-10-06T11:57:57.110Z,47.4
2018-10-06T11:58:57.838Z,46.8
2018-10-06T11:59:58.545Z,46.6
2018-10-06T12:00:59.202Z,46.5
2018-10-06T12:01:59.923Z,46.8
2018-10-06T12:03:00.607Z,46.2
2018-10-06T12:04:01.329Z,46.5
2018-10-06T12:05:02.040Z,46.5
2018-10-06T12:06:02.737Z,46.1
2018-10-06T12:07:03.469Z,45.8
2018-10-06T12:08:04.156Z,45.8
2018-10-06T12:09:04.832Z,45.8
2018-10-06T12:10:05.515Z,46.4
2018-10-06T12:11:06.198Z,45.8
2018-10-06T12:12:06.880Z,45.9
2018-10-06T12:13:07.562Z,45.2
2018-10-06T12:14:08.241Z,45.1
2018-10-06T12:15:08.925Z,45.1
2018-10-06T12:16:09.605Z,45.1
2018-10-06T12:17:10.286Z,45.7
2018-10-06T12:18:10.967Z,45.8
2018-10-06T12:19:11.652Z,45.7
2018-10-06T12:20:12.331Z,45.8
2018-10-06T12:21:13.102Z,45.6
2018-10-06T12:22:13.787Z,45.5
2018-10-06T12:23:14.509Z,45.7
2018-10-06T12:24:15.190Z,45.6
2018-10-06T12:25:15.914Z,46.2
2018-10-06T12:26:16.630Z,46.2
2018-10-06T12:27:17.319Z,46.5
2018-10-06T12:28:17.999Z,46.6
2018-10-06T12:29:18.723Z,46.6
2018-10-06T12:30:19.417Z,46.6
2018-10-06T12:31:20.129Z,46.8
2018-10-06T12:32:20.887Z,47.4
2018-10-06T12:33:21.590Z,46.7
2018-10-06T12:34:22.311Z,46.6
2018-10-06T12:35:23.119Z,46.8
2018-10-06T12:36:23.683Z,47.1
2018-10-06T12:37:24.413Z,47.4
2018-10-06T12:38:25.129Z,47.2
2018-10-06T12:39:25.811Z,47.1
2018-10-06T12:40:26.492Z,47.0
2018-10-06T12:41:27.217Z,47.5
2018-10-06T12:42:27.918Z,47.3
2018-10-06T12:43:28.674Z,47.7
2018-10-06T12:44:29.398Z,47.6
2018-10-06T12:45:30.085Z,47.7
2018-10-06T12:46:30.760Z,46.9
2018-10-06T12:48:46.997Z,47.3
2018-10-06T12:49:47.728Z,47.4
2018-10-06T12:50:48.454Z,47.2
2018-10-06T12:51:49.155Z,47.1
2018-10-06T12:52:49.910Z,47.1
2018-10-06T12:53:50.591Z,47.2
2018-10-06T12:54:51.275Z,47.4
2018-10-06T12:55:51.955Z,46.6
2018-10-06T12:56:52.636Z,46.5
2018-10-06T12:57:53.317Z,46.2
2018-10-06T12:58:53.999Z,46.4
2018-10-06T12:59:54.725Z,46.2
2018-10-06T13:00:55.376Z,46.3
2018-10-06T13:01:56.089Z,46.1
2018-10-06T13:02:56.771Z,46.8
2018-10-06T13:03:57.451Z,46.1
2018-10-06T13:04:58.136Z,46.2
2018-10-06T13:05:58.864Z,46.1
2018-10-06T13:06:59.497Z,46.5
2018-10-06T13:08:00.179Z,46.1
2018-10-06T13:09:00.904Z,46.1
2018-10-06T13:10:01.587Z,46.6
2018-10-06T13:11:02.267Z,46.5
2018-10-06T13:12:03.061Z,46.5
2018-10-06T13:13:03.631Z,46.4
2018-10-06T13:14:04.312Z,46.6
2018-10-06T13:15:04.993Z,46.8
2018-10-06T13:16:05.677Z,46.5
2018-10-06T13:17:06.443Z,46.8
2018-10-06T13:18:07.135Z,47.2
2018-10-06T13:19:07.815Z,46.9
2018-10-06T13:20:08.540Z,47.5
2018-10-06T13:21:09.222Z,47.8
2018-10-06T13:22:09.905Z,47.8
2018-10-06T13:23:10.588Z,47.8
2018-10-06T13:24:11.267Z,47.9
2018-10-06T13:25:11.949Z,48.5
2018-10-06T13:26:12.681Z,48.9
2018-10-06T13:27:13.361Z,48.9